Time;durP1;ratioP1;P1;durP2;ratioP2;P2;SDS_P1;SDS_P2;PMS_P1;PMS_P2;Temp;Humidity;BMP_temperature;BMP_pressure;BME280_temperature;BME280_humidity;BME280_pressure;Samples;Min_cycle;Max_cycle;Signal;HPM_P1;HPM_P2
2022/05/19 00:01:54;;;;;;;;;;;;;;;23.07;48.21;101748.22;5031223;28;4055;-63
2022/05/19 00:04:21;;;;;;;;;;;;;;;23.06;48.30;101752.50;5029781;28;4565;-64
2022/05/19 00:06:47;;;;;;;;;;;;;;;23.06;48.48;101745.97;5030107;28;4180;-63
2022/05/19 00:09:14;;;;;;;;;;;;;;;23.06;48.49;101754.66;5034137;28;5489;-63
2022/05/19 00:11:40;;;;;;;;;;;;;;;23.05;48.58;101756.78;5035309;28;4759;-63
2022/05/19 00:14:16;;;;;;;;;;;;;;;23.06;48.47;101751.75;5028367;28;4105;-63
2022/05/19 00:16:42;;;;;;;;;;;;;;;23.05;48.24;101753.16;5033836;28;5368;-63
2022/05/19 00:19:08;;;;;;;;;;;;;;;23.05;48.50;101747.38;5033845;28;4829;-64
2022/05/19 00:21:35;;;;;;;;;;;;;;;23.05;48.53;101744.50;5031773;28;4234;-63
2022/05/19 00:24:01;;;;;;;;;;;;;;;23.04;48.45;101745.88;5034602;28;5474;-63
2022/05/19 00:26:28;;;;;;;;;;;;;;;23.04;48.49;101751.66;5030662;28;4219;-63
2022/05/19 00:28:54;;;;;;;;;;;;;;;23.03;48.53;101741.50;5031735;28;4456;-63
2022/05/19 00:31:20;;;;;;;;;;;;;;;23.04;48.51;101745.88;5031836;28;4232;-63
2022/05/19 00:33:47;;;;;;;;;;;;;;;23.04;48.13;101745.88;5035535;28;4171;-63
2022/05/19 00:36:14;;;;;;;;;;;;;;;23.03;48.27;101741.50;5026306;28;3981;-63
2022/05/19 00:38:41;;;;;;;;;;;;;;;23.03;48.44;101741.50;5032465;28;4185;-63
2022/05/19 00:41:07;;;;;;;;;;;;;;;23.02;48.49;101737.09;5031443;28;6357;-64
2022/05/19 00:43:35;;;;;;;;;;;;;;;23.02;48.10;101737.09;5035970;28;4252;-63
2022/05/19 00:46:13;;;;;;;;;;;;;;;23.02;48.59;101737.09;5030919;28;5208;-63
2022/05/19 00:48:53;;;;;;;;;;;;;;;23.00;48.42;101735.63;5044058;28;4385;-63
2022/05/19 00:51:20;;;;;;;;;;;;;;;23.01;48.34;101742.13;5029462;28;4354;-63
2022/05/19 00:53:46;;;;;;;;;;;;;;;23.00;48.55;101741.41;5033763;28;4061;-63
2022/05/19 00:56:24;;;;;;;;;;;;;;;23.00;48.19;101738.50;5034711;28;4001;-63
2022/05/19 00:58:53;;;;;;;;;;;;;;;22.98;48.20;101735.50;5031415;28;4185;-63
2022/05/19 01:01:20;;;;;;;;;;;;;;;22.98;48.28;101738.38;5027172;28;4258;-63
2022/05/19 01:03:53;;;;;;;;;;;;;;;22.99;48.24;101731.22;5024579;28;4208;-63
2022/05/19 01:06:19;;;;;;;;;;;;;;;22.98;48.13;101728.97;5034948;28;4194;-63
2022/05/19 01:08:48;;;;;;;;;;;;;;;22.99;48.60;101734.13;5037404;28;4233;-63
2022/05/19 01:11:15;;;;;;;;;;;;;;;22.98;48.62;101729.72;5035338;28;4272;-63
2022/05/19 01:13:42;;;;;;;;;;;;;;;22.97;48.19;101728.19;5033583;28;4137;-63
2022/05/19 01:16:08;;;;;;;;;;;;;;;22.97;48.32;101731.09;5036010;28;4185;-63
2022/05/19 01:18:36;;;;;;;;;;;;;;;22.96;48.36;101726.72;5033225;28;4756;-63
2022/05/19 01:21:03;;;;;;;;;;;;;;;22.97;48.31;101733.25;5036640;28;4267;-63
2022/05/19 01:23:37;;;;;;;;;;;;;;;22.96;48.39;101729.59;5033826;28;5434;-63
2022/05/19 01:26:22;;;;;;;;;;;;;;;22.96;48.23;101732.50;5035443;28;5375;-63
2022/05/19 01:28:48;;;;;;;;;;;;;;;22.95;48.44;101731.00;5033376;28;4130;-63
2022/05/19 01:31:34;;;;;;;;;;;;;;;22.95;48.52;101725.25;5031034;28;5370;-63
2022/05/19 01:34:02;;;;;;;;;;;;;;;22.95;48.27;101724.47;5033250;28;4203;-63
2022/05/19 01:36:28;;;;;;;;;;;;;;;22.94;48.50;101717.97;5035031;28;5396;-63
2022/05/19 01:38:56;;;;;;;;;;;;;;;22.94;48.41;101720.84;5037189;28;4147;-63
2022/05/19 01:41:37;;;;;;;;;;;;;;;22.93;48.60;101722.25;5037055;28;4172;-64
2022/05/19 01:44:22;;;;;;;;;;;;;;;22.94;48.53;101723.72;5050320;28;5288;-63
2022/05/19 01:46:51;;;;;;;;;;;;;;;22.93;48.54;101719.38;5034637;28;4225;-63
2022/05/19 01:49:19;;;;;;;;;;;;;;;22.94;48.52;101714.31;5031631;28;5417;-63
2022/05/19 01:51:47;;;;;;;;;;;;;;;22.94;48.58;101720.09;5027801;28;4083;-63
2022/05/19 01:54:22;;;;;;;;;;;;;;;22.94;48.53;101712.19;5036078;28;5242;-63
2022/05/19 01:56:51;;;;;;;;;;;;;;;22.93;48.28;101712.81;5037120;28;4169;-63
2022/05/19 01:59:17;;;;;;;;;;;;;;;22.93;48.55;101722.25;5030413;28;4050;-61
2022/05/19 02:01:44;;;;;;;;;;;;;;;22.92;48.57;101714.97;5032547;28;5380;-62
2022/05/19 02:04:28;;;;;;;;;;;;;;;22.92;48.39;101714.97;5040547;28;4233;-63
2022/05/19 02:06:59;;;;;;;;;;;;;;;22.90;48.27;101711.97;5037372;28;5122;-62
2022/05/19 02:09:27;;;;;;;;;;;;;;;22.91;48.71;101719.25;5022345;28;5230;-62
2022/05/19 02:11:54;;;;;;;;;;;;;;;22.91;48.74;101712.75;5031416;28;4219;-62
2022/05/19 02:14:27;;;;;;;;;;;;;;;22.90;48.75;101711.22;5033687;28;4252;-62
2022/05/19 02:16:54;;;;;;;;;;;;;;;22.90;48.63;101711.22;5018706;28;4112;-62
2022/05/19 02:19:22;;;;;;;;;;;;;;;22.89;48.59;101716.25;5033768;28;4244;-62
2022/05/19 02:21:48;;;;;;;;;;;;;;;22.90;48.77;101705.44;5034879;28;4235;-62
2022/05/19 02:24:15;;;;;;;;;;;;;;;22.89;48.90;101710.50;5031098;28;4035;-63
2022/05/19 02:26:41;;;;;;;;;;;;;;;22.89;48.72;101709.75;5033328;28;4189;-63
2022/05/19 02:29:08;;;;;;;;;;;;;;;22.89;48.49;101710.50;5031555;28;4143;-63
2022/05/19 02:31:35;;;;;;;;;;;;;;;22.88;48.67;101708.25;5031724;28;4212;-63
2022/05/19 02:34:01;;;;;;;;;;;;;;;22.87;48.59;101716.16;5032017;28;5718;-63
2022/05/19 02:36:27;;;;;;;;;;;;;;;22.87;48.70;101713.28;5028965;28;4221;-63
2022/05/19 02:38:54;;;;;;;;;;;;;;;22.87;48.40;101709.66;5036225;28;4363;-63
2022/05/19 02:41:20;;;;;;;;;;;;;;;22.86;48.33;101711.78;5032526;28;5344;-62
2022/05/19 02:43:47;;;;;;;;;;;;;;;22.86;48.48;101711.78;5034200;28;4191;-63
2022/05/19 02:46:13;;;;;;;;;;;;;;;22.86;48.39;101706.03;5029685;28;5346;-63
2022/05/19 02:48:39;;;;;;;;;;;;;;;22.86;48.19;101711.78;5031056;28;4244;-63
2022/05/19 02:51:06;;;;;;;;;;;;;;;22.86;48.34;101719.69;5028995;28;5866;-62
2022/05/19 02:53:32;;;;;;;;;;;;;;;22.85;48.38;101715.31;5030742;28;5221;-63
2022/05/19 02:56:00;;;;;;;;;;;;;;;22.84;48.01;101711.69;5035178;28;4181;-62
2022/05/19 02:58:26;;;;;;;;;;;;;;;22.84;48.11;101714.56;5028830;28;5287;-63
2022/05/19 03:00:53;;;;;;;;;;;;;;;22.84;48.18;101713.81;5032496;28;4233;-62
2022/05/19 03:03:19;;;;;;;;;;;;;;;22.83;48.13;101724.63;5030014;28;4361;-62
2022/05/19 03:05:48;;;;;;;;;;;;;;;22.83;48.22;101718.84;5032070;28;5271;-62
2022/05/19 03:08:15;;;;;;;;;;;;;;;22.83;48.35;101715.97;5027706;28;4256;-62
2022/05/19 03:10:42;;;;;;;;;;;;;;;22.83;48.26;101713.06;5030400;28;4207;-63
2022/05/19 03:13:14;;;;;;;;;;;;;;;22.82;48.26;101713.72;5024710;28;4150;-63
2022/05/19 03:15:40;;;;;;;;;;;;;;;22.82;48.16;101723.13;5027928;28;5172;-62
2022/05/19 03:18:07;;;;;;;;;;;;;;;22.82;48.10;101722.41;5031809;28;4220;-63
2022/05/19 03:20:33;;;;;;;;;;;;;;;22.82;48.14;101723.13;5026901;28;4029;-63
2022/05/19 03:23:00;;;;;;;;;;;;;;;22.80;48.05;101725.91;5030585;28;4324;-62
2022/05/19 03:25:26;;;;;;;;;;;;;;;22.80;48.00;101725.91;5027471;28;4287;-63
2022/05/19 03:27:52;;;;;;;;;;;;;;;22.80;48.01;101725.91;5032944;28;4222;-62
2022/05/19 03:30:19;;;;;;;;;;;;;;;22.80;47.97;101720.16;5028265;28;4169;-62
2022/05/19 03:32:45;;;;;;;;;;;;;;;22.80;47.92;101725.91;5030110;28;4172;-63
2022/05/19 03:35:12;;;;;;;;;;;;;;;22.79;47.67;101724.41;5028140;28;4262;-62
2022/05/19 03:37:39;;;;;;;;;;;;;;;22.78;47.63;101722.94;5032939;28;5456;-62
2022/05/19 03:40:06;;;;;;;;;;;;;;;22.78;47.78;101722.94;5034592;28;4255;-63
2022/05/19 03:42:33;;;;;;;;;;;;;;;22.78;47.80;101722.94;5029432;28;4153;-63
2022/05/19 03:44:59;;;;;;;;;;;;;;;22.78;47.60;101717.16;5033532;28;4072;-62
2022/05/19 03:47:25;;;;;;;;;;;;;;;22.78;47.92;101722.94;5032229;28;4825;-63
2022/05/19 03:49:52;;;;;;;;;;;;;;;22.77;47.87;101722.19;5031533;28;5795;-63
2022/05/19 03:52:18;;;;;;;;;;;;;;;22.78;47.59;101725.81;5028366;28;5503;-62
2022/05/19 03:54:47;;;;;;;;;;;;;;;22.76;47.78;101720.69;5027575;28;4072;-63
2022/05/19 03:57:13;;;;;;;;;;;;;;;22.76;47.78;101719.94;5031082;28;4222;-63
2022/05/19 03:59:40;;;;;;;;;;;;;;;22.76;47.81;101719.94;5033403;28;5388;-63
2022/05/19 04:02:06;;;;;;;;;;;;;;;22.75;47.58;101719.19;5028500;28;4041;-63
2022/05/19 04:05:18;;;;;;;;;;;;;;;22.76;47.80;101719.94;5028252;28;4275;-63
2022/05/19 04:07:44;;;;;;;;;;;;;;;22.75;47.45;101718.47;5033207;28;4186;-63
2022/05/19 04:10:11;;;;;;;;;;;;;;;22.75;47.63;101716.31;5028121;28;4259;-63
2022/05/19 04:12:37;;;;;;;;;;;;;;;22.74;47.63;101717.69;5028169;28;5473;-63
2022/05/19 04:15:04;;;;;;;;;;;;;;;22.75;47.68;101718.47;5028123;28;5299;-61
2022/05/19 04:17:33;;;;;;;;;;;;;;;22.77;47.97;101718.56;5017645;28;4186;-62
2022/05/19 04:20:03;;;;;;;;;;;;;;;22.75;47.36;101710.53;5025353;28;4350;-62
2022/05/19 04:22:29;;;;;;;;;;;;;;;22.75;47.58;101722.09;5030224;28;5090;-62
2022/05/19 04:24:56;;;;;;;;;;;;;;;22.75;47.68;101712.69;5026242;28;4213;-61
2022/05/19 04:27:22;;;;;;;;;;;;;;;22.76;47.56;101717.03;5026479;28;4186;-62
2022/05/19 04:29:49;;;;;;;;;;;;;;;22.76;47.49;101717.03;5027801;28;4407;-62
2022/05/19 04:32:16;;;;;;;;;;;;;;;22.75;47.41;101712.69;5033070;28;5281;-61
2022/05/19 04:34:43;;;;;;;;;;;;;;;22.76;47.24;101703.34;5029673;28;4186;-62
2022/05/19 04:37:11;;;;;;;;;;;;;;;22.76;47.56;101708.38;5033615;28;4193;-61
2022/05/19 04:39:37;;;;;;;;;;;;;;;22.75;47.14;101713.41;5032822;28;4247;-61
2022/05/19 04:42:07;;;;;;;;;;;;;;;22.76;47.19;101714.16;5031362;28;4166;-61
2022/05/19 04:44:34;;;;;;;;;;;;;;;22.76;47.38;101709.13;5035145;28;5517;-62
2022/05/19 04:47:00;;;;;;;;;;;;;;;22.76;47.40;101714.91;5019256;28;4165;-62
2022/05/19 04:49:26;;;;;;;;;;;;;;;22.76;47.26;101714.16;5033225;28;5380;-62
2022/05/19 04:51:53;;;;;;;;;;;;;;;22.76;47.32;101719.94;5033143;28;4317;-61
2022/05/19 04:54:19;;;;;;;;;;;;;;;22.70;47.25;101716.72;5030134;28;4181;-62
2022/05/19 04:56:45;;;;;;;;;;;;;;;22.49;47.18;101715.69;5030832;28;4185;-64
2022/05/19 04:59:15;;;;;;;;;;;;;;;22.43;47.06;101717.56;5031233;28;4201;-63
2022/05/19 05:01:41;;;;;;;;;;;;;;;22.43;47.25;101717.56;5035343;28;5284;-63
2022/05/19 05:04:08;;;;;;;;;;;;;;;22.42;46.93;101711.00;5035513;28;4533;-63
2022/05/19 05:06:34;;;;;;;;;;;;;;;22.27;47.04;101721.09;5029869;28;4175;-63
2022/05/19 05:09:01;;;;;;;;;;;;;;;22.30;46.84;101721.94;5030830;28;4072;-64
2022/05/19 05:11:27;;;;;;;;;;;;;;;22.33;46.85;101720.63;5036401;28;4215;-62
2022/05/19 05:13:53;;;;;;;;;;;;;;;22.29;46.87;101723.34;5030776;28;4290;-62
2022/05/19 05:16:20;;;;;;;;;;;;;;;22.32;47.08;101724.94;5034548;28;5338;-62
2022/05/19 05:18:46;;;;;;;;;;;;;;;22.36;47.04;101720.13;5035716;28;5405;-62
2022/05/19 05:21:13;;;;;;;;;;;;;;;22.32;47.13;101722.03;5035846;28;4172;-64
2022/05/19 05:23:39;;;;;;;;;;;;;;;22.29;47.19;101726.22;5027696;28;4530;-63
2022/05/19 05:26:06;;;;;;;;;;;;;;;22.29;46.99;101732.00;5032402;28;5180;-63
2022/05/19 05:28:36;;;;;;;;;;;;;;;22.35;47.11;101732.28;5030019;28;4261;-59
2022/05/19 05:31:02;;;;;;;;;;;;;;;22.36;47.06;101720.13;5025703;28;4152;-64
2022/05/19 05:33:29;;;;;;;;;;;;;;;22.32;47.20;101730.69;5025097;28;4418;-65
2022/05/19 05:35:55;;;;;;;;;;;;;;;22.28;47.24;101724.72;5024553;28;4229;-65
2022/05/19 05:38:21;;;;;;;;;;;;;;;22.22;47.01;101733.81;5027730;28;4397;-66
2022/05/19 05:40:50;;;;;;;;;;;;;;;22.29;47.05;101723.34;5029098;28;4293;-66
2022/05/19 05:43:17;;;;;;;;;;;;;;;22.28;46.93;101730.47;5031007;28;4125;-65
2022/05/19 05:45:44;;;;;;;;;;;;;;;22.24;46.78;101736.81;5030443;28;5130;-64
2022/05/19 05:48:10;;;;;;;;;;;;;;;22.21;47.04;101737.28;5034112;28;3976;-65
2022/05/19 05:50:37;;;;;;;;;;;;;;;22.23;46.72;101732.41;5027503;28;4500;-64
2022/05/19 05:53:04;;;;;;;;;;;;;;;22.25;46.88;101743.31;5038494;28;4160;-66
2022/05/19 05:55:30;;;;;;;;;;;;;;;22.12;47.36;101745.50;5050496;28;4154;-66
2022/05/19 05:57:56;;;;;;;;;;;;;;;22.20;46.88;101738.69;5034682;28;4254;-66
2022/05/19 06:00:24;;;;;;;;;;;;;;;22.16;46.83;101737.06;5032695;28;4198;-66
2022/05/19 06:02:50;;;;;;;;;;;;;;;22.20;46.79;101735.81;5034290;28;4096;-66
2022/05/19 06:05:17;;;;;;;;;;;;;;;22.21;46.72;101731.53;5033969;28;4465;-66
2022/05/19 06:07:43;;;;;;;;;;;;;;;22.21;46.65;101732.31;5036399;28;4666;-66
2022/05/19 06:10:10;;;;;;;;;;;;;;;22.22;47.00;101733.03;5036233;28;4163;-63
2022/05/19 06:12:36;;;;;;;;;;;;;;;22.22;46.67;101738.81;5036672;28;4310;-65
2022/05/19 06:15:05;;;;;;;;;;;;;;;22.23;46.93;101728.78;5034947;28;4171;-66
2022/05/19 06:17:32;;;;;;;;;;;;;;;22.24;46.72;101719.50;5032923;28;4159;-65
2022/05/19 06:19:58;;;;;;;;;;;;;;;22.09;47.38;101732.38;5033821;28;4299;-65
2022/05/19 06:22:24;;;;;;;;;;;;;;;22.05;47.19;101732.16;5041015;28;4683;-66
2022/05/19 06:24:51;;;;;;;;;;;;;;;21.95;47.65;101734.50;5032005;28;4597;-65
2022/05/19 06:27:17;;;;;;;;;;;;;;;22.11;48.44;101729.59;5031262;28;5445;-68
2022/05/19 06:29:44;;;;;;;;;;;;;;;22.31;48.83;101724.19;5029730;28;4258;-71
2022/05/19 06:32:10;;;;;;;;;;;;;;;22.35;47.44;101735.19;5025581;28;5293;-72
2022/05/19 06:34:38;;;;;;;;;;;;;;;22.31;47.37;101726.31;5025682;28;4202;-69
2022/05/19 06:37:04;;;;;;;;;;;;;;;22.11;47.43;101729.59;5025127;28;4233;-69
2022/05/19 06:39:30;;;;;;;;;;;;;;;22.11;46.99;101725.97;5026584;28;5306;-69
2022/05/19 06:42:02;;;;;;;;;;;;;;;22.07;47.61;101728.63;5034093;28;4250;-69
2022/05/19 06:44:33;;;;;;;;;;;;;;;22.09;47.38;101726.59;5032310;28;4587;-69
2022/05/19 06:46:59;;;;;;;;;;;;;;;22.02;47.84;101721.91;5026344;28;5288;-70
2022/05/19 06:49:26;;;;;;;;;;;;;;;21.99;47.84;101728.97;5035541;28;4032;-70
2022/05/19 06:51:52;;;;;;;;;;;;;;;22.07;48.04;101720.72;5029259;28;4229;-70
2022/05/19 06:54:19;;;;;;;;;;;;;;;22.04;47.83;101719.13;5033959;28;4246;-72
2022/05/19 06:56:44;;;;;;;;;;;;;;;22.21;50.65;101720.00;5033139;28;4291;-77
2022/05/19 06:59:11;;;;;;;;;;;;;;;22.36;48.47;101713.59;5035912;28;4181;-74
2022/05/19 07:01:37;;;;;;;;;;;;;;;22.38;47.22;101705.06;5034892;28;4139;-77
2022/05/19 07:04:11;;;;;;;;;;;;;;;22.37;46.81;101710.06;5028060;28;5283;-71
2022/05/19 07:06:36;;;;;;;;;;;;;;;22.37;46.79;101700.66;5023627;28;5565;-70
2022/05/19 07:09:03;;;;;;;;;;;;;;;22.36;46.99;101696.28;5031162;28;4240;-71
2022/05/19 07:11:29;;;;;;;;;;;;;;;22.40;46.79;101689.97;5035055;28;5794;-71
2022/05/19 07:14:06;;;;;;;;;;;;;;;22.41;47.00;101689.31;5035664;28;4672;-71
2022/05/19 07:16:33;;;;;;;;;;;;;;;22.42;47.13;101696.59;5033150;28;4592;-71
2022/05/19 07:21:44;;;;;;;;;;;;;;;22.44;47.22;101678.63;5032347;28;4219;-71
2022/05/19 07:24:14;;;;;;;;;;;;;;;22.45;47.07;101686.66;5034826;28;4214;-71
2022/05/19 07:26:42;;;;;;;;;;;;;;;22.46;47.12;101682.38;5034957;28;5650;-70
2022/05/19 07:29:08;;;;;;;;;;;;;;;22.47;46.95;101686.75;5035460;28;5758;-71
2022/05/19 07:31:35;;;;;;;;;;;;;;;22.47;47.33;101677.34;5031280;28;4528;-71
2022/05/19 07:34:01;;;;;;;;;;;;;;;22.49;47.13;101678.19;5034692;28;4228;-68
2022/05/19 07:36:27;;;;;;;;;;;;;;;22.51;47.13;101678.28;5027996;28;5700;-68
2022/05/19 07:38:56;;;;;;;;;;;;;;;22.53;47.11;101680.53;5030626;28;4238;-68
2022/05/19 07:41:22;;;;;;;;;;;;;;;22.53;47.46;101666.84;5029080;28;5895;-69
2022/05/19 07:43:52;;;;;;;;;;;;;;;22.55;47.05;101674.88;5034339;28;4180;-68
2022/05/19 07:46:18;;;;;;;;;;;;;;;22.56;47.21;101676.34;5030100;28;5527;-67
2022/05/19 07:48:45;;;;;;;;;;;;;;;22.58;47.29;101659.13;5033666;28;4638;-70
2022/05/19 07:51:11;;;;;;;;;;;;;;;22.58;47.12;101667.78;5035453;28;4360;-68
2022/05/19 07:53:37;;;;;;;;;;;;;;;22.58;47.19;101677.19;5033478;28;5631;-69
2022/05/19 07:56:04;;;;;;;;;;;;;;;22.58;47.29;101671.44;5031525;28;4167;-68
2022/05/19 07:58:30;;;;;;;;;;;;;;;22.61;47.50;101669.41;5028331;28;5625;-68
2022/05/19 08:00:57;;;;;;;;;;;;;;;22.61;47.57;101660.75;5027880;28;4222;-68
2022/05/19 08:03:23;;;;;;;;;;;;;;;22.62;47.29;101664.38;5027456;28;6577;-68
2022/05/19 08:05:51;;;;;;;;;;;;;;;22.62;47.37;101664.38;5034325;28;4108;-68
2022/05/19 08:08:17;;;;;;;;;;;;;;;22.63;47.53;101660.09;5034872;28;5687;-73
2022/05/19 08:10:43;;;;;;;;;;;;;;;22.64;47.52;101667.38;5028722;28;5397;-74
2022/05/19 08:15:55;;;;;;;;;;;;;;;22.68;47.94;101656.03;5035062;28;4208;-70
2022/05/19 08:18:22;;;;;;;;;;;;;;;22.78;48.92;101653.63;5027707;28;4412;-68
2022/05/19 08:20:56;;;;;;;;;;;;;;;22.72;49.13;101659.09;5037984;28;4252;-65
2022/05/19 08:23:32;;;;;;;;;;;;;;;22.71;48.71;101657.63;5036298;28;5345;-67
2022/05/19 08:26:00;;;;;;;;;;;;;;;22.76;50.55;101653.53;5035914;28;4155;-66
2022/05/19 08:28:30;;;;;;;;;;;;;;;22.88;49.50;101657.00;5032062;28;4252;-68
2022/05/19 08:31:02;;;;;;;;;;;;;;;22.96;49.52;101663.19;5045704;28;4268;-68
2022/05/19 08:33:29;;;;;;;;;;;;;;;23.04;49.62;101662.09;5033147;28;4400;-69
2022/05/19 08:35:55;;;;;;;;;;;;;;;23.09;49.58;101660.91;5033479;28;4209;-65
2022/05/19 08:38:21;;;;;;;;;;;;;;;23.11;49.46;101644.44;5034791;28;4258;-67
2022/05/19 08:40:49;;;;;;;;;;;;;;;23.15;49.08;101650.38;5029249;28;5281;-65
2022/05/19 08:43:16;;;;;;;;;;;;;;;23.32;48.84;101648.25;5031632;28;5403;-65
2022/05/19 08:45:44;;;;;;;;;;;;;;;23.44;48.97;101648.09;5032342;28;4061;-67
2022/05/19 08:48:12;;;;;;;;;;;;;;;23.47;48.55;101650.41;5020620;28;4377;-65
2022/05/19 08:50:46;;;;;;;;;;;;;;;23.46;48.45;101648.19;5035716;28;5319;-68
2022/05/19 08:53:12;;;;;;;;;;;;;;;23.40;47.84;101646.47;5034145;28;4443;-69
2022/05/19 08:55:39;;;;;;;;;;;;;;;23.48;47.81;101645.38;5035587;28;4190;-66
2022/05/19 08:58:12;;;;;;;;;;;;;;;23.57;48.08;101647.22;5034555;28;4069;-67
2022/05/19 09:00:49;;;;;;;;;;;;;;;23.55;48.21;101644.28;5033670;28;4169;-66
2022/05/19 09:03:18;;;;;;;;;;;;;;;23.54;48.31;101636.97;5021997;28;5269;-69
2022/05/19 09:06:03;;;;;;;;;;;;;;;23.53;48.56;101642.03;5024470;28;5577;-68
2022/05/19 09:08:45;;;;;;;;;;;;;;;23.45;48.15;101635.13;5029547;28;5675;-65
2022/05/19 09:11:18;;;;;;;;;;;;;;;23.49;48.63;101635.31;5033863;28;4219;-65
2022/05/19 09:13:55;;;;;;;;;;;;;;;23.55;48.11;101632.69;5033047;28;4030;-63
2022/05/19 09:16:22;;;;;;;;;;;;;;;23.36;48.33;101634.72;5020902;28;6473;-63
2022/05/19 09:18:51;;;;;;;;;;;;;;;23.27;48.90;101632.13;5031983;28;3992;-63
2022/05/19 09:21:19;;;;;;;;;;;;;;;23.22;49.19;101625.41;5033628;28;5206;-64
2022/05/19 09:23:45;;;;;;;;;;;;;;;23.22;49.19;101619.63;5022243;28;3977;-63
2022/05/19 09:26:18;;;;;;;;;;;;;;;23.21;49.22;101623.94;5029182;28;4094;-63
2022/05/19 09:28:44;;;;;;;;;;;;;;;23.20;49.32;101619.53;5032053;28;4301;-62
2022/05/19 09:31:12;;;;;;;;;;;;;;;23.20;49.77;101623.19;5033242;28;4106;-65
2022/05/19 09:33:42;;;;;;;;;;;;;;;23.21;50.01;101612.38;5031297;28;4112;-62
2022/05/19 09:36:12;;;;;;;;;;;;;;;23.22;49.98;101616.75;5034844;28;4115;-62
2022/05/19 09:38:44;;;;;;;;;;;;;;;23.22;49.75;101616.75;5032888;28;4158;-62
2022/05/19 09:41:23;;;;;;;;;;;;;;;23.21;49.76;101612.38;5032336;28;4059;-62
2022/05/19 09:43:53;;;;;;;;;;;;;;;23.22;49.79;101613.84;5024855;28;4031;-62
2022/05/19 09:46:20;;;;;;;;;;;;;;;23.23;49.67;101611.69;5032436;28;4362;-63
2022/05/19 09:48:47;;;;;;;;;;;;;;;23.24;49.77;101613.94;5030233;28;4330;-62
2022/05/19 09:51:17;;;;;;;;;;;;;;;23.25;49.68;101612.56;5035909;28;5345;-62
2022/05/19 09:53:47;;;;;;;;;;;;;;;23.44;49.62;101616.28;5021517;28;4179;-69
2022/05/19 09:56:14;;;;;;;;;;;;;;;23.54;49.88;101617.47;4112920;28;10000584;-73
2022/05/19 09:58:45;;;;;;;;;;;;;;;23.63;49.74;101609.94;4117319;28;10000618;-72
2022/05/19 10:01:32;;;;;;;;;;;;;;;23.68;49.48;101610.84;4996219;28;4212;-76
2022/05/19 10:04:01;;;;;;;;;;;;;;;23.70;49.27;101603.00;4991484;28;4513;-71
2022/05/19 10:06:36;;;;;;;;;;;;;;;23.75;49.61;101598.91;4994183;28;4267;-70
2022/05/19 10:09:07;;;;;;;;;;;;;;;23.79;49.44;101598.38;4998906;28;4042;-66
2022/05/19 10:11:33;;;;;;;;;;;;;;;23.72;49.57;101594.44;4995050;28;5602;-66
2022/05/19 10:14:07;;;;;;;;;;;;;;;23.72;49.33;101588.66;4986603;28;5510;-77
2022/05/19 10:16:36;;;;;;;;;;;;;;;23.75;49.38;101595.28;4992922;28;4211;-71
2022/05/19 10:19:05;;;;;;;;;;;;;;;23.78;48.88;101588.94;4988161;28;4156;-69
2022/05/19 10:21:44;;;;;;;;;;;;;;;23.78;49.22;101586.06;4983090;28;4462;-66
2022/05/19 10:24:45;;;;;;;;;;;;;;;23.82;49.46;101577.56;4986159;28;5149;-60
2022/05/19 10:33:00;;;;;;;;;;;;;;;23.91;48.77;101563.44;4987793;28;4076;-63
2022/05/19 10:35:27;;;;;;;;;;;;;;;23.86;49.03;101568.28;5013402;28;5785;-66
2022/05/19 10:38:00;;;;;;;;;;;;;;;23.76;49.44;101562.09;4998858;28;4138;-66
2022/05/19 10:40:47;;;;;;;;;;;;;;;23.71;49.28;101561.13;4994840;28;5594;-66
2022/05/19 10:43:29;;;;;;;;;;;;;;;23.78;48.94;101562.19;4992648;28;4283;-66
2022/05/19 10:45:58;;;;;;;;;;;;;;;23.95;48.90;101554.94;5002282;28;4644;-64
2022/05/19 10:48:44;;;;;;;;;;;;;;;24.06;48.84;101550.34;4991630;28;4089;-60
2022/05/19 10:51:26;;;;;;;;;;;;;;;24.12;48.79;101545.53;4993188;28;4088;-62
2022/05/19 10:54:01;;;;;;;;;;;;;;;24.19;48.43;101544.38;4986291;28;4417;-60
2022/05/19 10:56:36;;;;;;;;;;;;;;;24.27;48.24;101535.28;4999795;28;4248;-62
2022/05/19 10:59:05;;;;;;;;;;;;;;;24.36;48.36;101530.59;4988937;28;4272;-61
2022/05/19 11:01:31;;;;;;;;;;;;;;;24.49;47.91;101534.72;4987732;28;4944;-62
2022/05/19 11:04:15;;;;;;;;;;;;;;;24.47;47.56;101529.63;4984848;28;4229;-65
2022/05/19 11:06:42;;;;;;;;;;;;;;;24.19;48.13;101521.25;4989205;28;4238;-64
2022/05/19 11:09:33;;;;;;;;;;;;;;;24.22;48.82;101516.28;4993629;28;4109;-63
2022/05/19 11:12:08;;;;;;;;;;;;;;;24.33;48.81;101514.53;5008814;28;4198;-61
2022/05/19 11:14:47;;;;;;;;;;;;;;;24.40;48.25;101513.38;5013685;28;4287;-61
2022/05/19 11:17:27;;;;;;;;;;;;;;;24.48;48.05;101512.97;5017573;28;4163;-62
2022/05/19 11:19:58;;;;;;;;;;;;;;;24.49;47.96;101515.22;5017158;28;4190;-62
2022/05/19 11:22:26;;;;;;;;;;;;;;;24.53;47.83;101508.84;5007964;28;4271;-61
2022/05/19 11:27:43;;;;;;;;;;;;;;;24.56;47.74;101505.38;5012042;28;4041;-58
2022/05/19 11:30:14;;;;;;;;;;;;;;;24.53;47.55;101503.78;5015033;28;4140;-59
2022/05/19 11:32:42;;;;;;;;;;;;;;;24.58;47.35;101493.88;5011040;28;4636;-59
2022/05/19 11:35:15;;;;;;;;;;;;;;;24.59;47.06;101488.81;4996165;28;4638;-61
2022/05/19 11:37:46;;;;;;;;;;;;;;;24.59;47.05;101488.81;5015579;28;5801;-59
2022/05/19 11:40:31;;;;;;;;;;;;;;;24.57;47.38;101480.03;5017353;28;4788;-59
2022/05/19 11:43:21;;;;;;;;;;;;;;;24.61;47.31;101480.94;5003124;28;5727;-59
2022/05/19 11:45:56;;;;;;;;;;;;;;;24.60;46.87;101485.25;5015966;28;4585;-58
2022/05/19 11:57:33;;;;;;;;;;;;;;;24.93;46.54;101480.69;5016028;28;4171;-61
2022/05/19 12:00:03;;;;;;;;;;;;;;;24.88;46.56;101476.91;5016558;28;4606;-63
2022/05/19 12:02:39;;;;;;;;;;;;;;;24.58;46.32;101482.28;5000916;28;4244;-61
2022/05/19 12:05:10;;;;;;;;;;;;;;;24.44;46.86;101478.78;5019137;28;5830;-62
2022/05/19 12:07:40;;;;;;;;;;;;;;;24.36;47.29;101478.47;5005083;28;4153;-61
2022/05/19 12:10:06;;;;;;;;;;;;;;;24.29;47.69;101470.97;5017094;28;4184;-62
2022/05/19 12:12:35;;;;;;;;;;;;;;;24.23;47.61;101471.44;5013583;28;4553;-61
2022/05/19 12:15:05;;;;;;;;;;;;;;;24.22;47.72;101472.88;5009694;28;4221;-62
2022/05/19 12:17:32;;;;;;;;;;;;;;;24.59;47.54;101477.97;5011877;28;4213;-66
2022/05/19 12:20:03;;;;;;;;;;;;;;;25.18;46.36;101464.22;5015874;28;4183;-65
2022/05/19 12:22:44;;;;;;;;;;;;;;;25.30;45.38;101464.66;5016828;28;4487;-63
2022/05/19 12:25:16;;;;;;;;;;;;;;;25.43;46.44;101463.69;5021301;28;4201;-69
2022/05/19 12:27:53;;;;;;;;;;;;;;;25.55;45.63;101459.72;5006916;28;5151;-70
2022/05/19 12:33:15;;;;;;;;;;;;;;;25.35;45.90;101463.38;4999939;28;4018;-65
2022/05/19 12:35:43;;;;;;;;;;;;;;;25.22;45.76;101452.75;4997465;28;4230;-67
2022/05/19 12:38:29;;;;;;;;;;;;;;;25.09;45.63;101452.31;5005372;28;4621;-67
2022/05/19 12:40:56;;;;;;;;;;;;;;;25.06;45.78;101442.06;5014122;28;5517;-69
2022/05/19 12:43:37;;;;;;;;;;;;;;;25.07;45.87;101449.34;5010353;28;5647;-65
2022/05/19 12:46:09;;;;;;;;;;;;;;;25.06;45.82;101442.06;5016693;28;4818;-65
2022/05/19 12:48:35;;;;;;;;;;;;;;;25.00;45.75;101438.19;5013915;28;4259;-65
2022/05/19 12:51:08;;;;;;;;;;;;;;;24.95;45.84;101425.00;5015140;28;4258;-65
2022/05/19 12:53:39;;;;;;;;;;;;;;;24.94;45.40;101426.38;5014474;28;4245;-65
2022/05/19 12:56:07;;;;;;;;;;;;;;;24.92;45.81;101420.50;5018040;28;4603;-65
2022/05/19 12:58:33;;;;;;;;;;;;;;;25.00;45.53;101421.56;5013747;28;4514;-67
2022/05/19 13:01:18;;;;;;;;;;;;;;;24.97;45.00;101422.91;5015834;28;4082;-65
2022/05/19 13:03:47;;;;;;;;;;;;;;;24.95;46.02;101402.53;5015760;28;4210;-66
2022/05/19 13:06:14;;;;;;;;;;;;;;;24.97;45.52;101411.31;5021652;28;4007;-66
2022/05/19 13:08:41;;;;;;;;;;;;;;;24.90;45.73;101403.81;5021377;28;4773;-66
2022/05/19 13:11:15;;;;;;;;;;;;;;;24.92;45.53;101398.06;5023896;28;4039;-67
2022/05/19 13:13:42;;;;;;;;;;;;;;;24.96;45.74;101398.22;5020584;28;5254;-66
2022/05/19 13:16:12;;;;;;;;;;;;;;;24.96;45.71;101398.22;5023718;28;6227;-69
2022/05/19 13:18:42;;;;;;;;;;;;;;;24.97;45.58;101393.16;5018460;28;5569;-68
2022/05/19 13:21:34;;;;;;;;;;;;;;;24.75;45.30;101390.97;5018044;28;5249;-66
2022/05/19 13:24:06;;;;;;;;;;;;;;;24.66;45.97;101389.91;5018096;28;4205;-65